This is the latest recevied weather packets stored in our database for station/object KE8AFF-13. If no packets are shown the sender has not sent any weather packets the latest 10 day(s).
| Time | Temp. | Humidity | Pressure | Rain* | Wind** | Luminosity | Snow |
|---|---|---|---|---|---|---|---|
| 1777854985 | 10° C | 74% | 1012.5 hPa | 0 mm | - | 0 W/m² | - |
| 1777854682 | 10° C | 73% | 1012.6 hPa | 0 mm | - | 0 W/m² | - |
| 1777854378 | 10° C | 72% | 1012.7 hPa | 0 mm | - | 0 W/m² | - |
| 1777854076 | 10° C | 72% | 1012.8 hPa | 0 mm | - | 0 W/m² | - |
| 1777853768 | 10° C | 72% | 1012.6 hPa | 0 mm | - | 0 W/m² | - |
| 1777853463 | 10° C | 71% | 1012.8 hPa | 0 mm | - | 0 W/m² | - |
| 1777853161 | 10.56° C | 71% | 1012.9 hPa | 0 mm | - | 2 W/m² | - |
| 1777852859 | 10.56° C | 70% | 1012.9 hPa | 0 mm | - | 3 W/m² | - |
| 1777852556 | 10.56° C | 69% | 1012.9 hPa | 0 mm | - | 3 W/m² | - |
| 1777852253 | 10.56° C | 69% | 1013.2 hPa | 0 mm | - | 6 W/m² | - |
| 1777851951 | 10.56° C | 68% | 1013.1 hPa | 0 mm | - | 6 W/m² | - |
| 1777851649 | 10.56° C | 67% | 1013.3 hPa | 0 mm | - | 9 W/m² | - |
| 1777851345 | 11.11° C | 66% | 1013.5 hPa | 0 mm | - | 20 W/m² | - |
| 1777851041 | 11.11° C | 65% | 1013.1 hPa | 0 mm | - | 49 W/m² | - |
| 1777850739 | 11.11° C | 63% | 1013.3 hPa | 0 mm | - | 52 W/m² | - |
| 1777850436 | 11.67° C | 62% | 1013.3 hPa | 0 mm | - | 62 W/m² | - |
| 1777850134 | 11.67° C | 62% | 1013.2 hPa | 0 mm | - | 65 W/m² | - |
| 1777849830 | 11.67° C | 60% | 1012.9 hPa | 0 mm | - | 67 W/m² | - |
| 1777849526 | 12.78° C | 58% | 1012.8 hPa | 0 mm | - | 79 W/m² | - |
| 1777849224 | 13.33° C | 55% | 1012.8 hPa | 0 mm | - | 115 W/m² | - |
| 1777848921 | 14.44° C | 44% | 1012.6 hPa | 0 mm | - | 148 W/m² | - |
| 1777848615 | 14.44° C | 44% | 1012.4 hPa | 0 mm | - | 112 W/m² | - |
| 1777848313 | 14.44° C | 45% | 1012.7 hPa | 0 mm | - | 98 W/m² | - |
| 1777848006 | 14.44° C | 44% | 1012.6 hPa | 0 mm | - | 115 W/m² | - |
| 1777847703 | 15° C | 43% | 1012.6 hPa | 0 mm | - | 139 W/m² | - |
* Rain latest hour (hover to see other rain measurements)
** Current wind speed in m/s (hover to see current wind gust speed)